sensor_id;sensor_type;location;lat;lon;timestamp;pressure;altitude;pressure_sealevel;temperature;humidity
34297;BME280;20564;42.902;25.336;2023-05-19T00:00:41;97312.03;;;12.49;100.00
34297;BME280;20564;42.902;25.336;2023-05-19T00:03:15;97306.16;;;12.55;100.00
34297;BME280;20564;42.902;25.336;2023-05-19T00:05:44;97311.03;;;12.50;100.00
34297;BME280;20564;42.902;25.336;2023-05-19T00:08:15;97312.03;;;12.49;100.00
34297;BME280;20564;42.902;25.336;2023-05-19T00:10:43;97306.00;;;12.57;100.00
34297;BME280;20564;42.902;25.336;2023-05-19T00:13:31;97323.94;;;12.53;100.00
34297;BME280;20564;42.902;25.336;2023-05-19T00:16:00;97319.28;;;12.47;100.00
34297;BME280;20564;42.902;25.336;2023-05-19T00:18:28;97297.41;;;12.54;100.00
34297;BME280;20564;42.902;25.336;2023-05-19T00:20:56;97298.16;;;12.47;100.00
34297;BME280;20564;42.902;25.336;2023-05-19T00:23:24;97307.44;;;12.51;100.00
34297;BME280;20564;42.902;25.336;2023-05-19T00:25:55;97291.97;;;12.56;100.00
34297;BME280;20564;42.902;25.336;2023-05-19T00:28:22;97301.47;;;12.49;100.00
34297;BME280;20564;42.902;25.336;2023-05-19T00:30:50;97305.38;;;12.45;100.00
34297;BME280;20564;42.902;25.336;2023-05-19T00:33:18;97301.81;;;12.54;100.00
34297;BME280;20564;42.902;25.336;2023-05-19T00:35:45;97305.38;;;12.45;100.00
34297;BME280;20564;42.902;25.336;2023-05-19T00:38:13;97302.38;;;12.40;100.00
34297;BME280;20564;42.902;25.336;2023-05-19T00:40:40;97301.09;;;12.44;100.00
34297;BME280;20564;42.902;25.336;2023-05-19T00:43:08;97314.28;;;12.44;100.00
34297;BME280;20564;42.902;25.336;2023-05-19T00:45:36;97307.84;;;12.46;100.00
34297;BME280;20564;42.902;25.336;2023-05-19T00:48:03;97309.97;;;12.43;100.00
34297;BME280;20564;42.902;25.336;2023-05-19T00:50:31;97301.63;;;12.47;100.00
34297;BME280;20564;42.902;25.336;2023-05-19T00:53:00;97298.34;;;12.36;100.00
34297;BME280;20564;42.902;25.336;2023-05-19T00:55:28;97301.06;;;12.26;100.00
34297;BME280;20564;42.902;25.336;2023-05-19T00:57:57;97302.53;;;12.28;100.00
34297;BME280;20564;42.902;25.336;2023-05-19T01:00:25;97304.16;;;12.21;100.00
34297;BME280;20564;42.902;25.336;2023-05-19T01:02:53;97302.19;;;12.23;100.00
34297;BME280;20564;42.902;25.336;2023-05-19T01:05:22;97297.44;;;12.27;100.00
34297;BME280;20564;42.902;25.336;2023-05-19T01:07:50;97293.59;;;12.21;100.00
34297;BME280;20564;42.902;25.336;2023-05-19T01:10:19;97290.78;;;12.23;100.00
34297;BME280;20564;42.902;25.336;2023-05-19T01:12:47;97296.91;;;12.23;100.00
34297;BME280;20564;42.902;25.336;2023-05-19T01:15:20;97292.34;;;12.16;100.00
34297;BME280;20564;42.902;25.336;2023-05-19T01:18:04;97285.22;;;12.26;100.00
34297;BME280;20564;42.902;25.336;2023-05-19T01:20:38;97292.59;;;12.22;100.00
34297;BME280;20564;42.902;25.336;2023-05-19T01:29:06;97290.53;;;12.16;100.00
34297;BME280;20564;42.902;25.336;2023-05-19T01:31:36;97285.56;;;12.13;100.00
34297;BME280;20564;42.902;25.336;2023-05-19T01:34:08;97283.63;;;12.15;100.00
34297;BME280;20564;42.902;25.336;2023-05-19T01:36:37;97286.91;;;12.17;100.00
34297;BME280;20564;42.902;25.336;2023-05-19T01:39:06;97291.38;;;12.17;100.00
34297;BME280;20564;42.902;25.336;2023-05-19T01:41:33;97299.44;;;12.15;100.00
34297;BME280;20564;42.902;25.336;2023-05-19T01:44:04;97296.13;;;12.13;100.00
34297;BME280;20564;42.902;25.336;2023-05-19T01:46:34;97293.34;;;12.15;100.00
34297;BME280;20564;42.902;25.336;2023-05-19T01:49:04;97289.72;;;12.16;100.00
34297;BME280;20564;42.902;25.336;2023-05-19T01:51:33;97295.53;;;12.19;100.00
34297;BME280;20564;42.902;25.336;2023-05-19T01:54:03;97295.69;;;12.18;100.00
34297;BME280;20564;42.902;25.336;2023-05-19T02:01:56;97280.41;;;12.21;100.00
34297;BME280;20564;42.902;25.336;2023-05-19T02:04:42;97274.44;;;12.19;100.00
34297;BME280;20564;42.902;25.336;2023-05-19T02:10:14;97289.56;;;12.17;100.00
34297;BME280;20564;42.902;25.336;2023-05-19T02:12:45;97294.16;;;12.15;100.00
34297;BME280;20564;42.902;25.336;2023-05-19T02:15:23;97299.44;;;12.15;100.00
34297;BME280;20564;42.902;25.336;2023-05-19T02:17:54;97296.41;;;12.10;100.00
34297;BME280;20564;42.902;25.336;2023-05-19T02:20:22;97300.13;;;12.17;100.00
34297;BME280;20564;42.902;25.336;2023-05-19T02:22:50;97299.00;;;12.20;100.00
34297;BME280;20564;42.902;25.336;2023-05-19T02:25:17;97310.38;;;12.20;100.00
34297;BME280;20564;42.902;25.336;2023-05-19T02:27:45;97306.91;;;12.20;100.00
34297;BME280;20564;42.902;25.336;2023-05-19T02:30:15;97318.00;;;12.23;100.00
34297;BME280;20564;42.902;25.336;2023-05-19T02:32:46;97318.72;;;12.25;100.00
34297;BME280;20564;42.902;25.336;2023-05-19T02:35:13;97328.94;;;12.28;100.00
34297;BME280;20564;42.902;25.336;2023-05-19T02:37:40;97338.25;;;12.33;100.00
34297;BME280;20564;42.902;25.336;2023-05-19T02:40:07;97343.38;;;12.34;100.00
34297;BME280;20564;42.902;25.336;2023-05-19T02:42:34;97337.66;;;12.39;100.00
34297;BME280;20564;42.902;25.336;2023-05-19T02:45:01;97340.97;;;12.41;100.00
34297;BME280;20564;42.902;25.336;2023-05-19T02:47:28;97359.75;;;12.38;100.00
34297;BME280;20564;42.902;25.336;2023-05-19T02:49:55;97352.00;;;12.36;100.00
34297;BME280;20564;42.902;25.336;2023-05-19T02:52:22;97357.09;;;12.38;100.00
34297;BME280;20564;42.902;25.336;2023-05-19T02:54:49;97361.84;;;12.34;100.00
34297;BME280;20564;42.902;25.336;2023-05-19T02:57:16;97363.09;;;12.40;100.00
34297;BME280;20564;42.902;25.336;2023-05-19T02:59:43;97358.34;;;12.43;100.00
34297;BME280;20564;42.902;25.336;2023-05-19T03:02:10;97367.63;;;12.47;100.00
34297;BME280;20564;42.902;25.336;2023-05-19T03:04:37;97367.75;;;12.46;100.00
34297;BME280;20564;42.902;25.336;2023-05-19T03:07:08;97376.66;;;12.45;100.00
34297;BME280;20564;42.902;25.336;2023-05-19T03:09:36;97380.41;;;12.42;100.00
34297;BME280;20564;42.902;25.336;2023-05-19T03:12:03;97367.63;;;12.47;100.00
34297;BME280;20564;42.902;25.336;2023-05-19T03:14:34;97379.00;;;12.48;100.00
34297;BME280;20564;42.902;25.336;2023-05-19T03:17:07;97374.56;;;12.48;100.00
34297;BME280;20564;42.902;25.336;2023-05-19T03:19:38;97380.09;;;12.55;100.00
34297;BME280;20564;42.902;25.336;2023-05-19T03:22:04;97375.63;;;12.55;100.00
34297;BME280;20564;42.902;25.336;2023-05-19T03:24:32;97383.38;;;12.57;100.00
34297;BME280;20564;42.902;25.336;2023-05-19T03:26:59;97379.78;;;12.58;100.00
34297;BME280;20564;42.902;25.336;2023-05-19T03:29:33;97381.28;;;12.61;100.00
34297;BME280;20564;42.902;25.336;2023-05-19T03:32:01;97376.00;;;12.61;100.00
34297;BME280;20564;42.902;25.336;2023-05-19T03:34:28;97381.75;;;12.56;100.00
34297;BME280;20564;42.902;25.336;2023-05-19T03:36:55;97380.75;;;12.57;100.00
34297;BME280;20564;42.902;25.336;2023-05-19T03:39:22;97373.66;;;12.58;100.00
34297;BME280;20564;42.902;25.336;2023-05-19T03:41:49;97383.09;;;12.60;100.00
34297;BME280;20564;42.902;25.336;2023-05-19T03:44:16;97379.19;;;12.64;100.00
34297;BME280;20564;42.902;25.336;2023-05-19T03:46:43;97380.25;;;12.71;100.00
34297;BME280;20564;42.902;25.336;2023-05-19T03:49:13;97387.06;;;12.74;100.00
34297;BME280;20564;42.902;25.336;2023-05-19T03:51:40;97390.22;;;12.77;100.00
34297;BME280;20564;42.902;25.336;2023-05-19T03:54:08;97388.25;;;12.79;100.00
34297;BME280;20564;42.902;25.336;2023-05-19T03:56:39;97391.13;;;12.86;100.00
34297;BME280;20564;42.902;25.336;2023-05-19T03:59:08;97392.81;;;12.87;100.00
34297;BME280;20564;42.902;25.336;2023-05-19T04:01:38;97387.59;;;12.95;100.00
34297;BME280;20564;42.902;25.336;2023-05-19T04:04:05;97391.16;;;13.04;100.00
34297;BME280;20564;42.902;25.336;2023-05-19T04:06:39;97391.59;;;13.17;100.00
34297;BME280;20564;42.902;25.336;2023-05-19T04:09:13;97385.81;;;13.32;100.00
34297;BME280;20564;42.902;25.336;2023-05-19T04:11:41;97385.81;;;13.49;100.00
34297;BME280;20564;42.902;25.336;2023-05-19T04:14:08;97391.44;;;13.55;100.00
34297;BME280;20564;42.902;25.336;2023-05-19T04:16:39;97382.09;;;13.60;100.00
34297;BME280;20564;42.902;25.336;2023-05-19T04:19:07;97400.00;;;13.74;100.00
34297;BME280;20564;42.902;25.336;2023-05-19T04:21:34;97385.91;;;13.92;100.00
34297;BME280;20564;42.902;25.336;2023-05-19T04:24:01;97389.63;;;14.07;100.00
34297;BME280;20564;42.902;25.336;2023-05-19T04:26:32;97388.94;;;14.31;100.00
34297;BME280;20564;42.902;25.336;2023-05-19T04:28:59;97403.03;;;14.40;100.00
34297;BME280;20564;42.902;25.336;2023-05-19T04:31:41;97405.16;;;14.36;100.00
34297;BME280;20564;42.902;25.336;2023-05-19T04:34:08;97401.69;;;14.36;100.00
34297;BME280;20564;42.902;25.336;2023-05-19T04:36:38;97408.69;;;14.45;100.00
34297;BME280;20564;42.902;25.336;2023-05-19T04:39:05;97402.94;;;14.50;100.00
34297;BME280;20564;42.902;25.336;2023-05-19T04:41:35;97406.56;;;14.48;100.00
34297;BME280;20564;42.902;25.336;2023-05-19T04:44:06;97407.38;;;14.49;100.00
34297;BME280;20564;42.902;25.336;2023-05-19T04:46:35;97407.09;;;14.52;100.00
34297;BME280;20564;42.902;25.336;2023-05-19T04:49:02;97405.84;;;14.73;100.00
34297;BME280;20564;42.902;25.336;2023-05-19T04:51:29;97422.44;;;14.91;100.00
34297;BME280;20564;42.902;25.336;2023-05-19T04:54:00;97403.59;;;15.02;100.00
34297;BME280;20564;42.902;25.336;2023-05-19T04:56:27;97414.22;;;15.10;100.00
34297;BME280;20564;42.902;25.336;2023-05-19T04:58:54;97399.97;;;15.28;100.00
34297;BME280;20564;42.902;25.336;2023-05-19T05:01:22;97403.00;;;15.33;100.00
34297;BME280;20564;42.902;25.336;2023-05-19T05:03:53;97412.28;;;15.29;100.00
34297;BME280;20564;42.902;25.336;2023-05-19T05:06:21;97414.59;;;15.40;100.00
34297;BME280;20564;42.902;25.336;2023-05-19T05:08:54;97418.75;;;15.59;99.83
34297;BME280;20564;42.902;25.336;2023-05-19T05:11:25;97419.09;;;15.80;99.80
34297;BME280;20564;42.902;25.336;2023-05-19T05:13:56;97416.91;;;16.00;98.20
34297;BME280;20564;42.902;25.336;2023-05-19T05:16:38;97426.50;;;16.18;95.71
34297;BME280;20564;42.902;25.336;2023-05-19T05:19:06;97418.69;;;16.24;96.92
34297;BME280;20564;42.902;25.336;2023-05-19T05:21:40;97424.41;;;16.44;94.50
34297;BME280;20564;42.902;25.336;2023-05-19T05:24:09;97426.19;;;16.60;93.21
34297;BME280;20564;42.902;25.336;2023-05-19T05:26:37;97428.63;;;16.78;93.10
34297;BME280;20564;42.902;25.336;2023-05-19T05:29:04;97427.41;;;16.88;91.00
34297;BME280;20564;42.902;25.336;2023-05-19T05:31:32;97417.25;;;16.92;90.93
34297;BME280;20564;42.902;25.336;2023-05-19T05:37:26;97425.09;;;17.17;91.36
34297;BME280;20564;42.902;25.336;2023-05-19T05:39:54;97427.66;;;17.33;90.33
34297;BME280;20564;42.902;25.336;2023-05-19T05:42:22;97437.19;;;17.27;88.85
34297;BME280;20564;42.902;25.336;2023-05-19T05:44:57;97435.06;;;17.46;87.42
34297;BME280;20564;42.902;25.336;2023-05-19T05:47:25;97431.97;;;17.80;86.87
34297;BME280;20564;42.902;25.336;2023-05-19T05:49:57;97432.56;;;17.90;86.46
34297;BME280;20564;42.902;25.336;2023-05-19T05:52:32;97436.06;;;18.05;84.67
34297;BME280;20564;42.902;25.336;2023-05-19T05:55:07;97432.44;;;18.21;85.13
34297;BME280;20564;42.902;25.336;2023-05-19T05:57:47;97436.66;;;18.45;83.38
34297;BME280;20564;42.902;25.336;2023-05-19T06:00:29;97446.50;;;18.45;82.78
34297;BME280;20564;42.902;25.336;2023-05-19T06:02:57;97444.50;;;18.62;82.43
34297;BME280;20564;42.902;25.336;2023-05-19T06:05:25;97449.00;;;18.76;80.49
34297;BME280;20564;42.902;25.336;2023-05-19T06:07:52;97455.88;;;18.55;82.07
34297;BME280;20564;42.902;25.336;2023-05-19T06:10:21;97449.81;;;18.62;81.38
34297;BME280;20564;42.902;25.336;2023-05-19T06:12:56;97453.94;;;18.79;81.09
34297;BME280;20564;42.902;25.336;2023-05-19T06:15:26;97456.09;;;18.84;81.29
34297;BME280;20564;42.902;25.336;2023-05-19T06:17:53;97453.03;;;19.01;81.61
34297;BME280;20564;42.902;25.336;2023-05-19T06:20:24;97451.88;;;19.11;80.36
34297;BME280;20564;42.902;25.336;2023-05-19T06:22:53;97444.91;;;19.10;80.12
34297;BME280;20564;42.902;25.336;2023-05-19T06:25:23;97449.72;;;18.99;80.90
34297;BME280;20564;42.902;25.336;2023-05-19T06:27:54;97453.03;;;19.01;81.01
34297;BME280;20564;42.902;25.336;2023-05-19T06:31:00;97455.25;;;18.98;82.31
34297;BME280;20564;42.902;25.336;2023-05-19T06:33:35;97451.97;;;19.17;81.92
34297;BME280;20564;42.902;25.336;2023-05-19T06:36:34;97447.97;;;19.28;80.79
34297;BME280;20564;42.902;25.336;2023-05-19T06:39:04;97448.28;;;19.18;80.87
34297;BME280;20564;42.902;25.336;2023-05-19T06:41:32;97446.00;;;19.37;79.64
34297;BME280;20564;42.902;25.336;2023-05-19T06:48:04;97454.06;;;19.80;77.77
34297;BME280;20564;42.902;25.336;2023-05-19T06:50:59;97450.66;;;19.92;76.95
34297;BME280;20564;42.902;25.336;2023-05-19T06:53:45;97449.81;;;20.41;77.08
34297;BME280;20564;42.902;25.336;2023-05-19T06:56:48;97451.19;;;20.65;74.22
34297;BME280;20564;42.902;25.336;2023-05-19T06:59:19;97458.00;;;20.40;71.87
34297;BME280;20564;42.902;25.336;2023-05-19T07:01:53;97459.78;;;20.26;71.21
34297;BME280;20564;42.902;25.336;2023-05-19T07:04:23;97462.34;;;20.41;71.60
34297;BME280;20564;42.902;25.336;2023-05-19T07:07:16;97460.72;;;20.46;70.77
34297;BME280;20564;42.902;25.336;2023-05-19T07:09:53;97452.22;;;20.64;70.19
34297;BME280;20564;42.902;25.336;2023-05-19T07:12:38;97462.28;;;20.56;69.83
34297;BME280;20564;42.902;25.336;2023-05-19T07:15:30;97462.56;;;20.46;69.84
34297;BME280;20564;42.902;25.336;2023-05-19T07:18:07;97457.69;;;20.50;68.94
34297;BME280;20564;42.902;25.336;2023-05-19T07:20:42;97458.13;;;20.94;68.99
34297;BME280;20564;42.902;25.336;2023-05-19T07:23:23;97452.19;;;21.06;66.41
34297;BME280;20564;42.902;25.336;2023-05-19T07:25:55;97451.81;;;21.09;66.57
34297;BME280;20564;42.902;25.336;2023-05-19T07:28:28;97454.47;;;21.09;67.20
34297;BME280;20564;42.902;25.336;2023-05-19T07:30:56;97443.28;;;21.33;65.08
34297;BME280;20564;42.902;25.336;2023-05-19T07:33:24;97442.91;;;21.56;64.80
34297;BME280;20564;42.902;25.336;2023-05-19T07:35:52;97439.66;;;21.87;62.98
34297;BME280;20564;42.902;25.336;2023-05-19T07:38:19;97447.72;;;22.21;61.74
34297;BME280;20564;42.902;25.336;2023-05-19T07:40:47;97442.53;;;22.46;60.82
34297;BME280;20564;42.902;25.336;2023-05-19T07:43:14;97449.63;;;22.92;60.40
34297;BME280;20564;42.902;25.336;2023-05-19T07:45:44;97452.31;;;22.92;57.39
34297;BME280;20564;42.902;25.336;2023-05-19T07:48:16;97445.78;;;22.61;59.03
34297;BME280;20564;42.902;25.336;2023-05-19T07:50:44;97447.44;;;22.55;58.55
34297;BME280;20564;42.902;25.336;2023-05-19T07:53:12;97447.25;;;22.57;58.53
34297;BME280;20564;42.902;25.336;2023-05-19T07:55:40;97438.78;;;22.53;58.60
34297;BME280;20564;42.902;25.336;2023-05-19T07:58:07;97443.75;;;22.50;58.15
34297;BME280;20564;42.902;25.336;2023-05-19T08:00:35;97442.06;;;22.55;59.32
34297;BME280;20564;42.902;25.336;2023-05-19T08:03:02;97442.13;;;22.35;59.50
34297;BME280;20564;42.902;25.336;2023-05-19T08:05:36;97445.44;;;21.98;59.62
34297;BME280;20564;42.902;25.336;2023-05-19T08:08:13;97445.84;;;21.88;60.58
34297;BME280;20564;42.902;25.336;2023-05-19T08:10:42;97452.00;;;21.62;60.33
34297;BME280;20564;42.902;25.336;2023-05-19T08:13:10;97454.44;;;21.57;62.83
34297;BME280;20564;42.902;25.336;2023-05-19T08:15:38;97449.53;;;21.80;61.88
34297;BME280;20564;42.902;25.336;2023-05-19T08:18:08;97443.16;;;21.88;60.97
34297;BME280;20564;42.902;25.336;2023-05-19T08:20:35;97454.91;;;21.80;61.04
34297;BME280;20564;42.902;25.336;2023-05-19T08:23:12;97461.88;;;21.68;60.20
34297;BME280;20564;42.902;25.336;2023-05-19T08:25:40;97460.22;;;21.54;61.50
34297;BME280;20564;42.902;25.336;2023-05-19T08:28:07;97462.88;;;21.40;62.61
34297;BME280;20564;42.902;25.336;2023-05-19T08:30:34;97465.53;;;21.40;65.26
34297;BME280;20564;42.902;25.336;2023-05-19T08:33:01;97461.06;;;21.74;63.46
34297;BME280;20564;42.902;25.336;2023-05-19T08:35:31;97457.41;;;22.15;61.17
34297;BME280;20564;42.902;25.336;2023-05-19T08:38:02;97465.00;;;22.45;60.04
34297;BME280;20564;42.902;25.336;2023-05-19T08:40:29;97467.69;;;22.45;58.34
34297;BME280;20564;42.902;25.336;2023-05-19T08:42:59;97461.09;;;22.34;57.74
34297;BME280;20564;42.902;25.336;2023-05-19T08:45:26;97462.06;;;22.59;58.74
34297;BME280;20564;42.902;25.336;2023-05-19T08:47:57;97454.81;;;22.93;57.85
34297;BME280;20564;42.902;25.336;2023-05-19T08:50:29;97456.97;;;23.16;55.61
34297;BME280;20564;42.902;25.336;2023-05-19T08:56:14;97449.84;;;23.35;54.98
34297;BME280;20564;42.902;25.336;2023-05-19T08:58:49;97455.28;;;23.22;56.64
34297;BME280;20564;42.902;25.336;2023-05-19T09:01:18;97455.34;;;23.08;55.42
34297;BME280;20564;42.902;25.336;2023-05-19T09:03:46;97450.50;;;23.30;53.65
34297;BME280;20564;42.902;25.336;2023-05-19T09:06:16;97445.50;;;23.72;53.19
34297;BME280;20564;42.902;25.336;2023-05-19T09:08:43;97442.69;;;23.92;53.78
34297;BME280;20564;42.902;25.336;2023-05-19T09:11:16;97438.56;;;24.40;53.03
34297;BME280;20564;42.902;25.336;2023-05-19T09:13:43;97441.44;;;24.82;55.19
34297;BME280;20564;42.902;25.336;2023-05-19T09:16:11;97446.28;;;24.54;52.22
34297;BME280;20564;42.902;25.336;2023-05-19T09:19:02;97444.63;;;24.10;53.78
34297;BME280;20564;42.902;25.336;2023-05-19T09:21:31;97443.41;;;24.06;55.74
34297;BME280;20564;42.902;25.336;2023-05-19T09:26:47;97439.53;;;24.20;55.30
34297;BME280;20564;42.902;25.336;2023-05-19T09:29:16;97443.16;;;24.33;54.83
34297;BME280;20564;42.902;25.336;2023-05-19T09:31:54;97442.69;;;24.61;53.95
34297;BME280;20564;42.902;25.336;2023-05-19T09:37:29;97431.56;;;24.94;49.66
34297;BME280;20564;42.902;25.336;2023-05-19T09:40:18;97429.84;;;25.18;48.85
34297;BME280;20564;42.902;25.336;2023-05-19T09:42:58;97428.38;;;25.34;49.77
34297;BME280;20564;42.902;25.336;2023-05-19T09:45:26;97424.69;;;25.16;50.89
34297;BME280;20564;42.902;25.336;2023-05-19T09:47:54;97422.44;;;25.13;51.10
34297;BME280;20564;42.902;25.336;2023-05-19T09:50:21;97424.44;;;24.99;51.41
34297;BME280;20564;42.902;25.336;2023-05-19T09:52:49;97422.81;;;24.98;52.80
34297;BME280;20564;42.902;25.336;2023-05-19T09:55:17;97431.72;;;25.17;52.64
34297;BME280;20564;42.902;25.336;2023-05-19T09:57:48;97421.75;;;24.99;50.18
34297;BME280;20564;42.902;25.336;2023-05-19T10:00:17;97421.69;;;24.69;51.06
34297;BME280;20564;42.902;25.336;2023-05-19T10:02:49;97408.91;;;24.65;48.53
34297;BME280;20564;42.902;25.336;2023-05-19T10:05:18;97411.66;;;24.40;50.22
34297;BME280;20564;42.902;25.336;2023-05-19T10:07:50;97407.13;;;24.40;50.76
34297;BME280;20564;42.902;25.336;2023-05-19T10:10:18;97410.81;;;24.21;51.95
34297;BME280;20564;42.902;25.336;2023-05-19T10:12:49;97414.81;;;24.12;54.12
34297;BME280;20564;42.902;25.336;2023-05-19T10:15:17;97405.38;;;24.02;52.04
34297;BME280;20564;42.902;25.336;2023-05-19T10:17:48;97407.06;;;23.97;51.71
34297;BME280;20564;42.902;25.336;2023-05-19T10:20:16;97412.16;;;24.30;50.39
34297;BME280;20564;42.902;25.336;2023-05-19T10:22:45;97401.50;;;24.60;48.82
34297;BME280;20564;42.902;25.336;2023-05-19T10:25:12;97400.63;;;24.66;49.90
34297;BME280;20564;42.902;25.336;2023-05-19T10:28:06;97399.56;;;24.49;52.29
34297;BME280;20564;42.902;25.336;2023-05-19T10:30:42;97401.31;;;24.37;53.51
34297;BME280;20564;42.902;25.336;2023-05-19T10:33:14;97404.34;;;24.47;52.66
34297;BME280;20564;42.902;25.336;2023-05-19T10:38:55;97403.28;;;24.85;49.04
34297;BME280;20564;42.902;25.336;2023-05-19T10:46:57;97397.59;;;24.74;46.10
34297;BME280;20564;42.902;25.336;2023-05-19T10:49:24;97393.72;;;24.70;46.37
34297;BME280;20564;42.902;25.336;2023-05-19T10:51:54;97388.41;;;24.82;48.96
34297;BME280;20564;42.902;25.336;2023-05-19T10:54:38;97394.38;;;25.02;48.64
34297;BME280;20564;42.902;25.336;2023-05-19T10:57:07;97377.50;;;25.25;47.60
34297;BME280;20564;42.902;25.336;2023-05-19T10:59:35;97381.06;;;25.38;48.88
34297;BME280;20564;42.902;25.336;2023-05-19T11:02:07;97391.25;;;25.36;50.07
34297;BME280;20564;42.902;25.336;2023-05-19T11:07:08;97379.41;;;25.37;47.92
34297;BME280;20564;42.902;25.336;2023-05-19T11:09:40;97377.50;;;25.25;47.48
34297;BME280;20564;42.902;25.336;2023-05-19T11:12:08;97393.56;;;25.02;47.03
34297;BME280;20564;42.902;25.336;2023-05-19T11:14:37;97384.31;;;24.43;47.19
34297;BME280;20564;42.902;25.336;2023-05-19T11:17:13;97378.38;;;23.91;49.13
34297;BME280;20564;42.902;25.336;2023-05-19T11:19:54;97378.13;;;23.99;51.03
34297;BME280;20564;42.902;25.336;2023-05-19T11:22:26;97376.03;;;24.19;50.17
34297;BME280;20564;42.902;25.336;2023-05-19T11:24:56;97372.16;;;24.15;50.28
34297;BME280;20564;42.902;25.336;2023-05-19T11:27:25;97372.41;;;24.32;52.06
34297;BME280;20564;42.902;25.336;2023-05-19T11:32:35;97373.19;;;24.58;47.69
34297;BME280;20564;42.902;25.336;2023-05-19T11:35:08;97365.19;;;24.69;47.02
34297;BME280;20564;42.902;25.336;2023-05-19T11:37:39;97361.56;;;24.94;46.07
34297;BME280;20564;42.902;25.336;2023-05-19T11:40:07;97369.47;;;24.89;47.28
34297;BME280;20564;42.902;25.336;2023-05-19T11:42:35;97368.06;;;24.86;50.14
34297;BME280;20564;42.902;25.336;2023-05-19T11:45:08;97365.97;;;24.88;50.30
34297;BME280;20564;42.902;25.336;2023-05-19T11:47:36;97357.91;;;24.70;48.00
34297;BME280;20564;42.902;25.336;2023-05-19T11:50:25;97355.31;;;24.45;49.73
34297;BME280;20564;42.902;25.336;2023-05-19T11:52:52;97351.47;;;24.34;47.32
34297;BME280;20564;42.902;25.336;2023-05-19T11:55:21;97339.59;;;24.42;47.49
34297;BME280;20564;42.902;25.336;2023-05-19T11:58:01;97348.13;;;24.57;49.95
34297;BME280;20564;42.902;25.336;2023-05-19T12:00:54;97347.97;;;24.52;45.65
34297;BME280;20564;42.902;25.336;2023-05-19T12:03:32;97342.97;;;24.56;46.68
34297;BME280;20564;42.902;25.336;2023-05-19T12:05:59;97346.03;;;24.59;46.66
34297;BME280;20564;42.902;25.336;2023-05-19T12:08:29;97340.50;;;24.72;49.48
34297;BME280;20564;42.902;25.336;2023-05-19T12:10:56;97342.91;;;25.11;47.47
34297;BME280;20564;42.902;25.336;2023-05-19T12:13:23;97331.22;;;25.17;48.09
34297;BME280;20564;42.902;25.336;2023-05-19T12:15:51;97331.38;;;24.73;46.16
34297;BME280;20564;42.902;25.336;2023-05-19T12:18:19;97334.38;;;24.65;47.52
34297;BME280;20564;42.902;25.336;2023-05-19T12:20:47;97333.47;;;25.01;47.41
34297;BME280;20564;42.902;25.336;2023-05-19T12:23:14;97325.75;;;25.23;46.67
34297;BME280;20564;42.902;25.336;2023-05-19T12:25:42;97315.91;;;25.41;46.07
34297;BME280;20564;42.902;25.336;2023-05-19T12:28:09;97322.50;;;25.45;45.71
34297;BME280;20564;42.902;25.336;2023-05-19T12:30:36;97331.84;;;25.31;48.25
34297;BME280;20564;42.902;25.336;2023-05-19T12:33:03;97332.41;;;25.33;46.51
34297;BME280;20564;42.902;25.336;2023-05-19T12:35:31;97328.13;;;25.55;47.32
34297;BME280;20564;42.902;25.336;2023-05-19T12:38:05;97326.84;;;25.58;45.10
34297;BME280;20564;42.902;25.336;2023-05-19T12:40:35;97331.63;;;25.44;49.61
34297;BME280;20564;42.902;25.336;2023-05-19T12:43:04;97325.22;;;25.68;45.57
34297;BME280;20564;42.902;25.336;2023-05-19T12:45:35;97326.66;;;25.83;43.26
34297;BME280;20564;42.902;25.336;2023-05-19T12:48:09;97343.19;;;26.21;43.82
34297;BME280;20564;42.902;25.336;2023-05-19T12:50:37;97324.78;;;26.18;40.91
34297;BME280;20564;42.902;25.336;2023-05-19T12:53:13;97326.41;;;26.19;40.99
34297;BME280;20564;42.902;25.336;2023-05-19T12:55:42;97331.72;;;26.14;42.17
34297;BME280;20564;42.902;25.336;2023-05-19T12:58:14;97334.28;;;25.86;42.76
34297;BME280;20564;42.902;25.336;2023-05-19T13:00:45;97327.31;;;25.55;44.25
34297;BME280;20564;42.902;25.336;2023-05-19T13:03:14;97334.84;;;25.22;44.83
34297;BME280;20564;42.902;25.336;2023-05-19T13:05:48;97321.75;;;24.96;45.33
34297;BME280;20564;42.902;25.336;2023-05-19T13:08:18;97316.81;;;24.63;45.40
34297;BME280;20564;42.902;25.336;2023-05-19T13:10:46;97319.47;;;24.26;45.54
34297;BME280;20564;42.902;25.336;2023-05-19T13:13:17;97328.22;;;24.03;48.00
34297;BME280;20564;42.902;25.336;2023-05-19T13:15:46;97326.84;;;23.94;48.07
34297;BME280;20564;42.902;25.336;2023-05-19T13:18:19;97320.44;;;24.13;48.45
34297;BME280;20564;42.902;25.336;2023-05-19T13:20:47;97326.19;;;24.35;46.16
34297;BME280;20564;42.902;25.336;2023-05-19T13:23:19;97328.69;;;24.55;48.42
34297;BME280;20564;42.902;25.336;2023-05-19T13:25:53;97334.38;;;24.28;45.97
34297;BME280;20564;42.902;25.336;2023-05-19T13:28:21;97333.31;;;24.11;48.73
34297;BME280;20564;42.902;25.336;2023-05-19T13:30:48;97328.03;;;23.98;49.61
34297;BME280;20564;42.902;25.336;2023-05-19T13:33:17;97330.66;;;23.86;50.20
34297;BME280;20564;42.902;25.336;2023-05-19T13:35:44;97331.75;;;23.78;50.36
34297;BME280;20564;42.902;25.336;2023-05-19T13:38:11;97338.38;;;23.76;51.51
34297;BME280;20564;42.902;25.336;2023-05-19T13:40:39;97344.91;;;23.87;49.80
34297;BME280;20564;42.902;25.336;2023-05-19T13:43:07;97380.84;;;23.67;49.80
34297;BME280;20564;42.902;25.336;2023-05-19T13:45:37;97387.84;;;22.33;50.93
34297;BME280;20564;42.902;25.336;2023-05-19T13:48:08;97403.16;;;20.85;53.48